createdAt,value
2024-02-29T00:01:05.973Z,77.95
2024-02-29T00:06:09.049Z,77.66
2024-02-29T00:11:14.326Z,78.31
2024-02-29T00:16:17.747Z,78.47
2024-02-29T00:21:20.769Z,77.46
2024-02-29T00:26:25.418Z,78.03
2024-02-29T00:31:28.317Z,77.90
2024-02-29T00:36:31.303Z,78.90
2024-02-29T00:41:35.807Z,78.39
2024-02-29T00:46:39.558Z,77.15
2024-02-29T00:51:42.502Z,77.41
2024-02-29T00:56:46.851Z,79.47
2024-02-29T01:01:49.961Z,78.89
2024-02-29T01:06:53.041Z,78.67
2024-02-29T01:11:57.283Z,78.95
2024-02-29T01:17:00.229Z,78.46
2024-02-29T01:22:03.548Z,78.71
2024-02-29T01:27:08.416Z,78.40
2024-02-29T01:32:18.656Z,78.18
2024-02-29T01:37:25.733Z,78.54
2024-02-29T01:42:30.032Z,78.24
2024-02-29T01:47:32.947Z,78.80
2024-02-29T01:52:40.554Z,77.71
2024-02-29T01:57:45.751Z,77.50
2024-02-29T02:02:48.950Z,77.83
2024-02-29T02:07:52.532Z,78.17
2024-02-29T02:12:56.851Z,78.08
2024-02-29T02:17:59.795Z,78.20
2024-02-29T02:23:04.064Z,77.57
2024-02-29T02:28:07.265Z,78.27
2024-02-29T02:33:12.112Z,78.15
2024-02-29T02:38:16.521Z,78.49
2024-02-29T02:43:19.487Z,78.70
2024-02-29T02:48:22.515Z,78.50
2024-02-29T02:53:26.744Z,77.48
2024-02-29T02:58:29.689Z,78.25
2024-02-29T03:03:33.211Z,77.43
2024-02-29T03:08:37.574Z,78.37
2024-02-29T03:13:40.898Z,78.15
2024-02-29T03:18:43.846Z,78.28
2024-02-29T03:23:48.490Z,77.81
2024-02-29T03:28:51.385Z,78.33
2024-02-29T03:33:54.285Z,77.94
2024-02-29T03:38:59.100Z,78.47
2024-02-29T03:44:02.063Z,77.75
2024-02-29T03:49:05.289Z,78.52
2024-02-29T03:54:09.738Z,77.58
2024-02-29T03:59:12.630Z,77.73
2024-02-29T04:04:15.622Z,77.28
2024-02-29T04:09:19.879Z,77.78
2024-02-29T04:14:22.804Z,77.54
2024-02-29T04:19:25.681Z,77.72
2024-02-29T04:24:29.972Z,78.24
2024-02-29T04:29:32.998Z,78.18
2024-02-29T04:34:35.900Z,78.32
2024-02-29T04:39:40.177Z,78.53
2024-02-29T04:44:43.262Z,78.33
2024-02-29T04:49:46.151Z,78.92
2024-02-29T04:54:50.670Z,80.48
2024-02-29T04:59:53.689Z,78.78
2024-02-29T05:04:56.596Z,79.48
2024-02-29T05:10:00.959Z,79.47
2024-02-29T05:15:04.372Z,79.08
2024-02-29T05:20:09.037Z,79.67
2024-02-29T05:25:14.717Z,79.64
2024-02-29T05:30:17.946Z,79.89
2024-02-29T05:35:23.678Z,79.33
2024-02-29T05:40:28.863Z,78.86
2024-02-29T05:45:31.823Z,79.31
2024-02-29T05:50:34.770Z,79.29
2024-02-29T05:55:39.197Z,79.50
2024-02-29T06:00:42.263Z,79.93
2024-02-29T06:05:45.196Z,79.44
2024-02-29T06:10:50.266Z,79.12
2024-02-29T06:15:53.363Z,78.96
2024-02-29T06:20:56.274Z,79.83
2024-02-29T06:26:01.342Z,79.62
2024-02-29T06:31:04.443Z,78.73
2024-02-29T06:36:10.134Z,78.26
2024-02-29T06:41:14.742Z,78.96
2024-02-29T06:46:18.271Z,77.68
2024-02-29T06:51:21.315Z,78.75
2024-02-29T06:56:25.585Z,78.17
2024-02-29T07:01:28.598Z,76.99
2024-02-29T07:06:31.707Z,75.93
2024-02-29T07:11:36.061Z,75.13
2024-02-29T07:16:39.750Z,75.15
2024-02-29T07:21:43.488Z,74.98
2024-02-29T07:26:47.827Z,74.47
2024-02-29T07:31:54.922Z,73.93
2024-02-29T07:36:58.100Z,73.72
2024-02-29T07:42:02.374Z,73.38
2024-02-29T07:47:05.560Z,73.07
2024-02-29T07:52:08.461Z,74.17
2024-02-29T07:57:13.002Z,72.80
2024-02-29T08:02:15.955Z,74.00
2024-02-29T08:07:19.267Z,73.10
2024-02-29T08:12:23.587Z,74.29
2024-02-29T08:17:28.270Z,73.57
2024-02-29T08:22:31.351Z,74.17
2024-02-29T08:27:36.613Z,73.40
2024-02-29T08:32:39.591Z,75.88
2024-02-29T08:37:43.825Z,73.11
2024-02-29T08:42:48.148Z,72.99
2024-02-29T08:47:51.340Z,74.03
2024-02-29T08:52:54.335Z,72.97
2024-02-29T08:57:59.432Z,71.82
2024-02-29T09:03:02.365Z,71.64
2024-02-29T09:08:05.563Z,72.81
2024-02-29T09:13:20.531Z,72.57
2024-02-29T09:18:32.808Z,71.50
2024-02-29T09:23:35.693Z,69.75
2024-02-29T09:28:39.969Z,69.11
2024-02-29T09:33:43.239Z,67.99
2024-02-29T09:38:46.316Z,67.72
2024-02-29T09:43:51.068Z,66.50
2024-02-29T09:48:54.425Z,66.10
2024-02-29T09:53:58.592Z,66.46
2024-02-29T09:59:04.053Z,66.48
2024-02-29T10:04:07.916Z,67.44
2024-02-29T10:09:11.153Z,68.56
2024-02-29T10:14:31.877Z,69.65
2024-02-29T10:19:34.893Z,70.81
2024-02-29T10:24:37.836Z,71.04
2024-02-29T10:29:43.001Z,71.24
2024-02-29T10:34:47.390Z,69.87
2024-02-29T10:39:51.055Z,71.79
2024-02-29T10:44:57.578Z,71.23
2024-02-29T10:50:05.940Z,70.56
2024-02-29T10:55:14.261Z,69.76
2024-02-29T11:00:18.774Z,69.72
2024-02-29T11:05:22.734Z,69.29
2024-02-29T11:10:26.098Z,68.84
2024-02-29T11:15:30.328Z,68.96
2024-02-29T11:20:35.027Z,67.82
2024-02-29T11:25:43.452Z,67.03
2024-02-29T11:30:52.603Z,66.44
2024-02-29T11:35:57.092Z,64.62
2024-02-29T11:41:00.001Z,64.95
2024-02-29T11:46:11.042Z,62.94
2024-02-29T11:51:13.969Z,62.57
2024-02-29T11:56:17.227Z,62.10
2024-02-29T12:01:24.770Z,60.99
2024-02-29T12:06:28.498Z,61.88
2024-02-29T12:11:33.670Z,61.74
2024-02-29T12:16:40.288Z,63.84
2024-02-29T12:21:44.623Z,63.70
2024-02-29T12:26:50.031Z,65.78
2024-02-29T12:31:54.385Z,65.15
2024-02-29T12:36:58.014Z,63.62
2024-02-29T12:42:01.319Z,65.03
2024-02-29T12:47:06.001Z,64.15
2024-02-29T12:52:08.973Z,64.40
2024-02-29T12:57:12.271Z,65.16
2024-02-29T13:02:17.292Z,65.12
2024-02-29T13:07:20.665Z,64.72
2024-02-29T13:12:23.683Z,64.93
2024-02-29T13:17:27.999Z,65.34
2024-02-29T13:22:30.909Z,65.10
2024-02-29T13:27:34.297Z,65.25
2024-02-29T13:32:38.573Z,64.66
2024-02-29T13:37:42.346Z,63.97
2024-02-29T13:42:45.847Z,64.04
2024-02-29T13:47:52.097Z,64.63
2024-02-29T13:52:55.314Z,63.61
2024-02-29T13:57:58.447Z,64.59
2024-02-29T14:03:02.689Z,65.20
2024-02-29T14:08:06.334Z,64.32
2024-02-29T14:13:09.268Z,63.67
2024-02-29T14:18:14.524Z,64.11
2024-02-29T14:23:17.666Z,64.66
2024-02-29T14:28:21.185Z,65.15
2024-02-29T14:33:25.513Z,63.91
2024-02-29T14:38:28.847Z,64.45
2024-02-29T14:43:31.797Z,64.52
2024-02-29T14:48:36.173Z,65.17
2024-02-29T14:53:39.033Z,64.32
2024-02-29T14:58:41.941Z,64.45
2024-02-29T15:03:46.239Z,64.21
2024-02-29T15:08:49.278Z,64.54
2024-02-29T15:13:52.251Z,64.31
2024-02-29T15:18:56.617Z,64.60
2024-02-29T15:23:59.553Z,64.72
2024-02-29T15:29:02.529Z,65.65
2024-02-29T15:34:06.823Z,65.76
2024-02-29T15:39:09.778Z,66.09
2024-02-29T15:44:12.699Z,66.54
2024-02-29T15:49:17.206Z,67.36
2024-02-29T15:54:20.157Z,67.38
2024-02-29T15:59:23.158Z,68.27
2024-02-29T16:04:27.577Z,67.39
2024-02-29T16:09:31.483Z,68.60
2024-02-29T16:14:34.473Z,68.26
2024-02-29T16:19:38.758Z,69.26
2024-02-29T16:24:41.800Z,69.71
2024-02-29T16:29:44.826Z,69.53
2024-02-29T16:34:49.067Z,69.56
2024-02-29T16:39:52.171Z,69.33
2024-02-29T16:44:55.942Z,70.13
2024-02-29T16:50:00.633Z,70.58
2024-02-29T16:55:03.606Z,70.36
2024-02-29T17:00:09.888Z,71.16
2024-02-29T17:05:14.614Z,70.69
2024-02-29T17:10:17.704Z,70.54
2024-02-29T17:15:20.797Z,70.31
2024-02-29T17:20:25.146Z,72.23
2024-02-29T17:25:28.190Z,71.86
2024-02-29T17:30:31.099Z,72.09
2024-02-29T17:35:36.852Z,72.80
2024-02-29T17:40:39.745Z,72.74
2024-02-29T17:45:43.065Z,72.82
2024-02-29T17:50:47.379Z,72.67
2024-02-29T17:55:50.308Z,74.20
2024-02-29T18:00:53.332Z,73.61
2024-02-29T18:05:57.657Z,74.68
2024-02-29T18:11:00.624Z,75.40
2024-02-29T18:16:03.617Z,76.48
2024-02-29T18:21:08.110Z,76.27
2024-02-29T18:26:12.931Z,75.80
2024-02-29T18:31:15.947Z,75.32
2024-02-29T18:36:20.232Z,75.02
2024-02-29T18:41:23.211Z,75.28
2024-02-29T18:46:26.123Z,75.08
2024-02-29T18:51:30.599Z,75.48
2024-02-29T18:56:33.524Z,74.90
2024-02-29T19:01:36.699Z,76.47
2024-02-29T19:06:41.152Z,75.38
2024-02-29T19:11:44.087Z,75.86
2024-02-29T19:16:47.136Z,75.43
2024-02-29T19:21:51.474Z,75.82
2024-02-29T19:26:54.671Z,76.12
2024-02-29T19:31:57.616Z,75.76
2024-02-29T19:37:01.956Z,75.60
2024-02-29T19:42:05.339Z,76.06
2024-02-29T19:47:08.461Z,76.87
2024-02-29T19:52:12.789Z,77.68
2024-02-29T19:57:15.732Z,77.60
2024-02-29T20:02:18.660Z,78.54
2024-02-29T20:07:23.374Z,78.17
2024-02-29T20:12:26.422Z,78.31
2024-02-29T20:17:29.288Z,79.44
2024-02-29T20:22:33.571Z,80.42
2024-02-29T20:27:37.249Z,79.85
2024-02-29T20:32:41.527Z,79.17
2024-02-29T20:37:46.435Z,78.76
2024-02-29T20:42:49.597Z,78.78
2024-02-29T20:47:52.593Z,80.23
2024-02-29T20:52:56.912Z,80.24
2024-02-29T20:57:59.870Z,80.68
2024-02-29T21:03:04.166Z,81.17
2024-02-29T21:08:08.700Z,82.13
2024-02-29T21:13:13.569Z,81.35
2024-02-29T21:18:17.212Z,86.13
2024-02-29T21:23:21.549Z,85.66
2024-02-29T21:28:24.455Z,86.64
2024-02-29T21:33:27.462Z,85.72
2024-02-29T21:38:31.827Z,86.09
2024-02-29T21:43:35.004Z,85.04
2024-02-29T21:48:37.986Z,85.56
2024-02-29T21:53:42.254Z,85.67
2024-02-29T21:58:45.282Z,85.84
2024-02-29T22:03:48.243Z,85.70
2024-02-29T22:08:52.736Z,86.18
2024-02-29T22:13:57.231Z,86.28
2024-02-29T22:19:00.186Z,86.29
2024-02-29T22:24:05.408Z,86.15
2024-02-29T22:29:08.332Z,86.53
2024-02-29T22:34:11.982Z,86.92
2024-02-29T22:39:16.305Z,86.36
2024-02-29T22:44:19.182Z,86.41
2024-02-29T22:49:22.259Z,85.62
2024-02-29T22:54:26.551Z,85.17
2024-02-29T22:59:29.498Z,84.59
2024-02-29T23:04:33.617Z,84.67
2024-02-29T23:09:37.920Z,84.66
2024-02-29T23:14:40.941Z,84.10
2024-02-29T23:19:43.923Z,84.59
2024-02-29T23:24:49.075Z,84.89
2024-02-29T23:29:52.002Z,84.48
2024-02-29T23:34:55.332Z,84.16
2024-02-29T23:39:59.661Z,84.75
2024-02-29T23:45:02.588Z,83.98
2024-02-29T23:50:06.801Z,84.29
2024-02-29T23:55:11.893Z,85.32
